createdAt,value
2022-12-12T00:01:28.858Z,5.67
2022-12-12T00:04:47.645Z,6.20
2022-12-12T00:07:51.871Z,6.50
2022-12-12T00:11:10.839Z,6.60
2022-12-12T00:14:28.017Z,7.23
2022-12-12T00:18:01.866Z,5.83
2022-12-12T00:21:18.044Z,6.03
2022-12-12T00:24:35.028Z,6.60
2022-12-12T00:27:38.952Z,6.90
2022-12-12T00:31:10.955Z,6.40
2022-12-12T00:34:26.790Z,6.47
2022-12-12T00:37:45.865Z,5.47
2022-12-12T00:41:13.980Z,6.00
2022-12-12T00:44:33.038Z,6.60
2022-12-12T00:47:49.961Z,5.95
2022-12-12T00:51:06.991Z,6.23
2022-12-12T00:54:26.247Z,7.97
2022-12-12T00:57:43.272Z,6.33
2022-12-12T01:00:44.845Z,5.80
2022-12-12T01:04:10.349Z,6.03
2022-12-12T01:07:22.336Z,6.30
2022-12-12T01:10:34.396Z,6.30
2022-12-12T01:13:46.405Z,6.93
2022-12-12T01:16:58.373Z,6.23
2022-12-12T01:20:12.361Z,6.20
2022-12-12T01:23:27.466Z,6.65
2022-12-12T01:26:39.453Z,6.10
2022-12-12T01:29:51.392Z,6.50
2022-12-12T01:32:51.459Z,6.40
2022-12-12T01:36:18.489Z,6.33
2022-12-12T01:39:18.524Z,5.93
2022-12-12T01:42:46.467Z,6.67
2022-12-12T01:46:04.581Z,6.33
2022-12-12T01:49:36.437Z,6.80
2022-12-12T01:52:50.441Z,6.23
2022-12-12T01:56:14.470Z,6.10
2022-12-12T01:59:26.584Z,7.93
2022-12-12T02:02:50.504Z,6.65
2022-12-12T02:06:18.503Z,7.50
2022-12-12T02:09:33.647Z,7.23
2022-12-12T02:12:48.551Z,7.83
2022-12-12T02:16:15.668Z,7.93
2022-12-12T02:19:42.596Z,6.90
2022-12-12T02:23:13.688Z,6.80
2022-12-12T02:26:44.666Z,7.53
2022-12-12T02:30:17.737Z,7.35
2022-12-12T02:33:45.588Z,6.90
2022-12-12T02:37:00.693Z,6.10
2022-12-12T02:40:24.613Z,6.23
2022-12-12T02:43:36.631Z,7.50
2022-12-12T02:47:02.738Z,6.53
2022-12-12T02:50:16.656Z,7.13
2022-12-12T02:53:42.653Z,6.53
2022-12-12T02:57:07.686Z,6.53
2022-12-12T03:00:32.726Z,6.43
2022-12-12T03:03:54.543Z,6.43
2022-12-12T03:07:27.247Z,6.40
2022-12-12T03:10:40.742Z,6.60
2022-12-12T03:14:06.751Z,6.97
2022-12-12T03:17:20.782Z,6.77
2022-12-12T03:20:44.689Z,6.60
2022-12-12T03:23:58.763Z,6.15
2022-12-12T03:27:22.741Z,6.57
2022-12-12T03:30:34.851Z,6.63
2022-12-12T03:33:58.761Z,6.33
2022-12-12T03:37:22.855Z,6.43
2022-12-12T03:40:49.874Z,6.33
2022-12-12T03:44:01.849Z,6.20
2022-12-12T03:47:25.857Z,6.35
2022-12-12T03:50:40.885Z,5.60
2022-12-12T03:54:04.897Z,5.97
2022-12-12T03:57:18.846Z,6.27
2022-12-12T04:00:43.015Z,6.67
2022-12-12T04:04:07.914Z,6.45
2022-12-12T04:07:34.977Z,6.97
2022-12-12T04:11:05.521Z,6.60
2022-12-12T04:14:19.922Z,6.53
2022-12-12T04:17:43.960Z,6.30
2022-12-12T04:21:02.806Z,6.77
2022-12-12T04:24:27.991Z,6.97
2022-12-12T04:27:39.966Z,6.30
2022-12-12T04:31:04.985Z,6.25
2022-12-12T04:34:17.047Z,7.20
2022-12-12T04:37:42.005Z,5.87
2022-12-12T04:40:54.109Z,5.77
2022-12-12T04:44:17.970Z,6.50
2022-12-12T04:47:35.029Z,6.97
2022-12-12T04:51:01.023Z,6.77
2022-12-12T04:54:13.095Z,6.37
2022-12-12T04:57:37.049Z,6.30
2022-12-12T05:00:49.069Z,6.07
2022-12-12T05:04:15.101Z,6.30
2022-12-12T05:07:31.986Z,5.55
2022-12-12T05:10:57.067Z,6.40
2022-12-12T05:14:09.094Z,6.20
2022-12-12T05:17:33.091Z,5.73
2022-12-12T05:20:47.118Z,6.40
2022-12-12T05:24:12.159Z,6.40
2022-12-12T05:27:12.185Z,5.90
2022-12-12T05:30:25.211Z,6.40
2022-12-12T05:33:25.225Z,6.10
2022-12-12T05:36:51.200Z,6.00
2022-12-12T05:39:51.207Z,6.43
2022-12-12T05:43:03.205Z,6.00
2022-12-12T05:46:03.253Z,5.70
2022-12-12T05:49:19.292Z,6.15
2022-12-12T05:52:33.209Z,6.30
2022-12-12T05:55:45.250Z,6.53
2022-12-12T05:58:45.293Z,5.60
2022-12-12T06:01:57.217Z,5.90
2022-12-12T06:05:09.257Z,6.10
2022-12-12T06:08:25.205Z,6.05
2022-12-12T06:11:36.276Z,6.23
2022-12-12T06:14:48.284Z,5.63
2022-12-12T06:18:00.300Z,6.33
2022-12-12T06:21:00.276Z,6.27
2022-12-12T06:24:29.337Z,7.33
2022-12-12T06:27:29.401Z,6.60
2022-12-12T06:30:41.404Z,6.07
2022-12-12T06:33:41.386Z,6.73
2022-12-12T06:36:53.413Z,6.40
2022-12-12T06:40:07.357Z,6.60
2022-12-12T06:43:19.460Z,6.33
2022-12-12T06:46:31.490Z,7.10
2022-12-12T06:49:43.411Z,6.65
2022-12-12T06:52:44.417Z,6.70
2022-12-12T06:56:11.473Z,9.30
2022-12-12T06:59:23.391Z,7.70
2022-12-12T07:02:36.519Z,7.47
2022-12-12T07:05:37.468Z,7.30
2022-12-12T07:09:02.452Z,7.17
2022-12-12T07:12:16.456Z,7.47
2022-12-12T07:15:29.554Z,7.03
2022-12-12T07:18:41.530Z,7.53
2022-12-12T07:21:53.457Z,6.90
2022-12-12T07:24:53.519Z,8.67
2022-12-12T07:28:20.640Z,6.90
2022-12-12T07:31:32.584Z,7.80
2022-12-12T07:34:45.582Z,7.53
2022-12-12T07:37:45.547Z,7.67
2022-12-12T07:40:57.509Z,7.53
2022-12-12T07:44:10.556Z,7.55
2022-12-12T07:47:22.587Z,7.55
2022-12-12T07:50:34.645Z,8.25
2022-12-12T07:53:47.632Z,7.90
2022-12-12T07:56:47.649Z,7.17
2022-12-12T08:00:13.633Z,7.83
2022-12-12T08:03:25.681Z,7.83
2022-12-12T08:06:37.659Z,7.93
2022-12-12T08:09:51.637Z,7.75
2022-12-12T08:12:51.670Z,7.70
2022-12-12T08:16:17.758Z,8.23
2022-12-12T08:19:18.700Z,8.53
2022-12-12T08:22:43.706Z,7.73
2022-12-12T08:25:43.748Z,7.27
2022-12-12T08:29:07.711Z,7.90
2022-12-12T08:32:21.709Z,8.37
2022-12-12T08:35:33.735Z,7.23
2022-12-12T08:38:45.761Z,8.40
2022-12-12T08:42:09.796Z,7.93
2022-12-12T08:45:09.830Z,7.75
2022-12-12T08:48:34.781Z,8.37
2022-12-12T08:51:34.753Z,8.30
2022-12-12T08:54:46.801Z,7.90
2022-12-12T08:57:47.771Z,7.93
2022-12-12T09:01:02.886Z,9.93
2022-12-12T09:04:16.782Z,8.93
2022-12-12T09:07:31.786Z,8.20
2022-12-12T09:10:43.871Z,8.13
2022-12-12T09:13:58.900Z,7.75
2022-12-12T09:17:01.886Z,8.67
2022-12-12T09:20:30.931Z,8.80
2022-12-12T09:23:54.845Z,8.17
2022-12-12T09:27:06.947Z,9.17
2022-12-12T09:30:06.878Z,9.03
2022-12-12T09:33:30.893Z,7.80
2022-12-12T09:36:44.951Z,8.83
2022-12-12T09:39:56.964Z,8.40
2022-12-12T09:43:10.898Z,8.60
2022-12-12T09:46:35.940Z,9.00
2022-12-12T09:49:48.951Z,9.50
2022-12-12T09:53:16.032Z,8.40
2022-12-12T09:56:28.958Z,8.53
2022-12-12T09:59:55.034Z,9.70
2022-12-12T10:03:20.972Z,9.47
2022-12-12T10:06:46.020Z,9.80
2022-12-12T10:10:09.022Z,9.83
2022-12-12T10:13:36.085Z,9.77
2022-12-12T10:16:57.408Z,8.93
2022-12-12T10:20:17.146Z,11.00
2022-12-12T10:23:29.006Z,10.50
2022-12-12T10:26:56.101Z,10.30
2022-12-12T10:30:10.158Z,9.50
2022-12-12T10:33:37.075Z,10.67
2022-12-12T10:37:04.036Z,11.00
2022-12-12T10:40:30.136Z,10.67
2022-12-12T10:43:44.100Z,12.47
2022-12-12T10:47:11.190Z,10.77
2022-12-12T10:50:26.144Z,9.63
2022-12-12T10:53:38.317Z,9.90
2022-12-12T10:56:50.115Z,9.97
2022-12-12T11:00:18.275Z,11.03
2022-12-12T11:03:38.277Z,10.60
2022-12-12T11:07:02.248Z,10.60
2022-12-12T11:10:02.806Z,9.40
2022-12-12T11:13:26.226Z,9.20
2022-12-12T11:16:40.291Z,9.77
2022-12-12T11:19:52.284Z,10.37
2022-12-12T11:23:04.281Z,10.60
2022-12-12T11:26:29.264Z,10.30
2022-12-12T11:29:54.268Z,11.00
2022-12-12T11:33:21.296Z,9.70
2022-12-12T11:36:33.321Z,10.20
2022-12-12T11:39:58.248Z,9.70
2022-12-12T11:42:58.400Z,10.47
2022-12-12T11:46:25.351Z,10.20
2022-12-12T11:52:02.517Z,11.37
2022-12-12T11:55:26.456Z,10.87
2022-12-12T11:58:40.489Z,9.77
2022-12-12T12:02:05.545Z,10.23
2022-12-12T12:05:30.493Z,9.10
2022-12-12T12:08:46.548Z,10.00
2022-12-12T12:12:11.540Z,9.90
2022-12-12T12:15:26.521Z,8.77
2022-12-12T12:18:55.552Z,9.87
2022-12-12T12:22:10.633Z,10.40
2022-12-12T12:25:45.592Z,9.05
2022-12-12T12:29:03.534Z,9.20
2022-12-12T12:32:33.626Z,8.57
2022-12-12T12:35:48.656Z,11.73
2022-12-12T12:39:15.656Z,10.27
2022-12-12T12:42:31.654Z,9.07
2022-12-12T12:45:59.668Z,9.10
2022-12-12T12:49:14.681Z,8.10
2022-12-12T12:52:38.686Z,8.97
2022-12-12T12:55:51.700Z,8.37
2022-12-12T12:59:18.672Z,9.77
2022-12-12T13:02:30.707Z,8.77
2022-12-12T13:05:56.718Z,8.55
2022-12-12T13:09:09.661Z,8.30
2022-12-12T13:12:34.661Z,9.00
2022-12-12T13:15:48.784Z,9.97
2022-12-12T13:19:12.749Z,10.97
2022-12-12T13:22:24.698Z,9.95
2022-12-12T13:25:50.815Z,10.03
2022-12-12T13:29:02.759Z,9.57
2022-12-12T13:32:32.865Z,12.97
2022-12-12T13:35:48.742Z,9.47
2022-12-12T13:39:12.812Z,9.63
2022-12-12T13:42:24.834Z,12.05
2022-12-12T13:45:57.818Z,10.00
2022-12-12T13:49:12.830Z,11.45
2022-12-12T13:52:46.896Z,10.47
2022-12-12T13:55:58.832Z,10.47
2022-12-12T13:59:11.931Z,10.30
2022-12-12T14:02:23.913Z,10.70
2022-12-12T14:05:47.844Z,10.93
2022-12-12T14:09:01.883Z,10.57
2022-12-12T14:12:31.794Z,10.30
2022-12-12T14:15:42.877Z,10.40
2022-12-12T14:19:13.892Z,10.53
2022-12-12T14:22:25.894Z,11.65
2022-12-12T14:25:54.924Z,11.70
2022-12-12T14:28:54.921Z,11.65
2022-12-12T14:32:21.002Z,10.77
2022-12-12T14:35:36.931Z,11.13
2022-12-12T14:39:03.963Z,11.40
2022-12-12T14:42:18.034Z,10.00
2022-12-12T14:45:55.052Z,10.20
2022-12-12T14:48:56.563Z,11.03
2022-12-12T14:52:21.057Z,11.27
2022-12-12T14:55:37.998Z,10.57
2022-12-12T14:59:04.066Z,11.37
2022-12-12T15:02:16.083Z,11.85
2022-12-12T15:05:40.033Z,11.65
2022-12-12T15:08:40.110Z,10.95
2022-12-12T15:11:52.079Z,11.97
2022-12-12T15:15:06.099Z,11.33
2022-12-12T15:18:19.080Z,11.60
2022-12-12T15:21:31.120Z,10.45
2022-12-12T15:25:00.126Z,10.87
2022-12-12T15:28:13.139Z,10.90
2022-12-12T15:31:40.256Z,11.20
2022-12-12T15:34:55.131Z,11.33
2022-12-12T15:38:19.113Z,9.73
2022-12-12T15:41:31.211Z,11.60
2022-12-12T15:44:55.150Z,10.90
2022-12-12T15:48:14.188Z,11.57
2022-12-12T15:51:38.189Z,11.30
2022-12-12T15:54:50.185Z,10.27
2022-12-12T15:58:17.652Z,11.30
2022-12-12T16:01:27.318Z,10.40
2022-12-12T16:04:53.318Z,9.73
2022-12-12T16:07:53.360Z,11.30
2022-12-12T16:11:17.254Z,10.70
2022-12-12T16:14:43.228Z,11.03
2022-12-12T16:17:59.246Z,10.87
2022-12-12T16:21:13.270Z,10.23
2022-12-12T16:24:38.269Z,10.87
2022-12-12T16:27:38.343Z,10.73
2022-12-12T16:31:02.296Z,10.83
2022-12-12T16:34:02.303Z,11.93
2022-12-12T16:37:28.295Z,10.27
2022-12-12T16:40:40.356Z,11.97
2022-12-12T16:44:04.397Z,11.53
2022-12-12T16:47:04.374Z,10.80
2022-12-12T16:50:20.427Z,10.60
2022-12-12T16:53:34.396Z,10.30
2022-12-12T16:56:47.407Z,10.23
2022-12-12T16:59:59.449Z,9.63
2022-12-12T17:03:14.373Z,11.37
2022-12-12T17:06:14.413Z,11.13
2022-12-12T17:09:39.428Z,11.70
2022-12-12T17:12:39.469Z,11.03
2022-12-12T17:15:51.475Z,9.80
2022-12-12T17:18:51.597Z,12.37
2022-12-12T17:22:04.494Z,11.35
2022-12-12T17:25:24.434Z,10.40
2022-12-12T17:28:37.540Z,11.57
2022-12-12T17:31:37.545Z,11.93
2022-12-12T17:34:49.563Z,11.35
2022-12-12T17:38:01.567Z,11.30
2022-12-12T17:41:32.478Z,11.00
2022-12-12T17:44:32.529Z,10.80
2022-12-12T17:47:56.636Z,11.37
2022-12-12T17:50:56.621Z,10.63
2022-12-12T17:54:09.544Z,10.47
2022-12-12T17:57:25.445Z,10.90
2022-12-12T18:00:39.691Z,12.00
2022-12-12T18:04:03.692Z,12.30
2022-12-12T18:07:15.672Z,12.10
2022-12-12T18:10:27.669Z,12.60
2022-12-12T18:13:41.617Z,11.35
2022-12-12T18:17:05.771Z,11.13
2022-12-12T18:20:05.649Z,11.35
2022-12-12T18:23:17.725Z,10.95
2022-12-12T18:26:29.697Z,11.27
2022-12-12T18:29:55.668Z,11.73
2022-12-12T18:33:01.176Z,11.53
2022-12-12T18:36:26.678Z,10.83
2022-12-12T18:39:50.688Z,11.35
2022-12-12T18:43:02.772Z,10.55
2022-12-12T18:46:16.772Z,10.90
2022-12-12T18:49:28.809Z,11.20
2022-12-12T18:52:28.731Z,11.13
2022-12-12T18:55:40.740Z,11.75
2022-12-12T18:58:40.751Z,11.33
2022-12-12T19:02:06.755Z,12.27
2022-12-12T19:05:06.804Z,10.90
2022-12-12T19:08:30.902Z,11.87
2022-12-12T19:11:30.780Z,11.97
2022-12-12T19:18:08.860Z,11.53
2022-12-12T19:21:32.847Z,12.40
2022-12-12T19:24:35.879Z,12.57
2022-12-12T19:27:48.848Z,11.40
2022-12-12T19:31:00.994Z,11.20
2022-12-12T19:34:26.900Z,12.25
2022-12-12T19:37:26.927Z,12.83
2022-12-12T19:40:38.894Z,11.57
2022-12-12T19:43:52.963Z,12.75
2022-12-12T19:47:05.946Z,10.23
2022-12-12T19:50:20.996Z,11.30
2022-12-12T19:53:32.906Z,12.47
2022-12-12T19:56:44.975Z,13.40
2022-12-12T19:59:58.054Z,11.50
2022-12-12T20:03:10.076Z,12.50
2022-12-12T20:06:34.969Z,12.13
2022-12-12T20:09:47.004Z,12.90
2022-12-12T20:13:01.050Z,13.30
2022-12-12T20:16:01.050Z,12.57
2022-12-12T20:19:24.971Z,12.93
2022-12-12T20:22:39.084Z,12.55
2022-12-12T20:26:05.062Z,12.03
2022-12-12T20:29:17.043Z,13.13
2022-12-12T20:32:29.071Z,13.77
2022-12-12T20:35:29.047Z,12.70
2022-12-12T20:38:55.102Z,12.55
2022-12-12T20:42:07.125Z,12.23
2022-12-12T20:45:20.087Z,13.70
2022-12-12T20:48:20.139Z,12.50
2022-12-12T20:54:47.146Z,13.13
2022-12-12T20:57:59.086Z,12.25
2022-12-12T21:00:59.185Z,13.15
2022-12-12T21:04:24.319Z,13.45
2022-12-12T21:07:24.139Z,13.20
2022-12-12T21:10:50.127Z,12.50
2022-12-12T21:13:50.170Z,12.83
2022-12-12T21:17:15.235Z,13.05
2022-12-12T21:20:15.213Z,13.40
2022-12-12T21:23:28.267Z,13.27
2022-12-12T21:26:42.259Z,13.83
2022-12-12T21:29:57.220Z,12.20
2022-12-12T21:32:57.237Z,12.20
2022-12-12T21:36:23.208Z,12.95
2022-12-12T21:39:35.279Z,13.60
2022-12-12T21:43:04.279Z,13.30
2022-12-12T21:46:04.285Z,13.40
2022-12-12T21:49:22.273Z,13.27
2022-12-12T21:52:23.351Z,13.20
2022-12-12T21:55:35.361Z,13.87
2022-12-12T21:58:49.384Z,12.77
2022-12-12T22:02:01.471Z,13.70
2022-12-12T22:05:14.501Z,12.80
2022-12-12T22:08:15.415Z,13.70
2022-12-12T22:11:50.532Z,13.90
2022-12-12T22:14:54.343Z,13.07
2022-12-12T22:18:06.455Z,13.87
2022-12-12T22:21:06.461Z,12.40
2022-12-12T22:24:19.411Z,14.13
2022-12-12T22:27:19.395Z,12.83
2022-12-12T22:30:46.472Z,14.40
2022-12-12T22:33:46.455Z,14.07
2022-12-12T22:37:10.414Z,12.53
2022-12-12T22:40:10.435Z,12.93
2022-12-12T22:43:23.445Z,14.05
2022-12-12T22:46:43.536Z,13.03
2022-12-12T22:49:49.464Z,13.40
2022-12-12T22:52:49.494Z,13.50
2022-12-12T22:56:01.495Z,14.03
2022-12-12T22:59:02.552Z,13.03
2022-12-12T23:02:28.567Z,13.10
2022-12-12T23:05:52.614Z,12.65
2022-12-12T23:09:16.570Z,13.53
2022-12-12T23:12:17.552Z,13.50
2022-12-12T23:15:30.554Z,13.23
2022-12-12T23:18:44.648Z,13.77
2022-12-12T23:22:12.594Z,13.30
2022-12-12T23:25:13.056Z,13.25
2022-12-12T23:28:24.590Z,13.13
2022-12-12T23:31:36.754Z,13.70
2022-12-12T23:35:01.613Z,14.33
2022-12-12T23:38:01.687Z,13.10
2022-12-12T23:41:26.621Z,13.70
2022-12-12T23:44:38.722Z,12.90
2022-12-12T23:47:50.821Z,12.97
2022-12-12T23:51:04.726Z,12.77
2022-12-12T23:54:28.676Z,14.97
2022-12-12T23:57:28.901Z,13.10
